Time;durP1;ratioP1;P1;durP2;ratioP2;P2;SDS_P1;SDS_P2;PMS_P1;PMS_P2;Temp;Humidity;BMP_temperature;BMP_pressure;BME280_temperature;BME280_humidity;BME280_pressure;Samples;Min_cycle;Max_cycle;Signal;HPM_P1;HPM_P2
2023/06/09 00:01:44;;;;;;;5.97;5.43;;;24.50;55.00;;;;;;4993235;28;88072;-93
2023/06/09 00:04:25;;;;;;;6.78;6.03;;;24.50;54.90;;;;;;4992390;28;88983;-89
2023/06/09 00:06:54;;;;;;;6.60;6.00;;;24.50;55.00;;;;;;4993572;28;87734;-87
2023/06/09 00:09:20;;;;;;;6.47;5.88;;;24.50;55.00;;;;;;4986236;28;87535;-86
2023/06/09 00:12:06;;;;;;;5.32;4.85;;;24.50;55.00;;;;;;4992383;28;87672;-92
2023/06/09 00:14:33;;;;;;;6.95;6.32;;;24.50;55.10;;;;;;4991462;28;88456;-94
2023/06/09 00:16:59;;;;;;;6.80;6.10;;;24.50;55.10;;;;;;4992424;28;88290;-85
2023/06/09 00:19:27;;;;;;;6.55;5.95;;;24.50;55.10;;;;;;4992588;28;87915;-87
2023/06/09 00:21:53;;;;;;;5.88;5.28;;;24.50;55.10;;;;;;4993471;28;87990;-92
2023/06/09 00:24:23;;;;;;;6.78;6.18;;;24.50;55.20;;;;;;4992776;28;88394;-90
2023/06/09 00:26:50;;;;;;;7.15;6.45;;;24.50;55.20;;;;;;4994862;28;87811;-90
2023/06/09 00:29:17;;;;;;;6.63;6.05;;;24.40;55.10;;;;;;4974539;28;88620;-95
2023/06/09 00:31:45;;;;;;;6.88;6.28;;;24.40;55.20;;;;;;4981092;28;88453;-89
2023/06/09 00:34:10;;;;;;;5.65;5.15;;;24.40;55.20;;;;;;4992103;28;87594;-91
2023/06/09 00:36:36;;;;;;;6.53;5.93;;;24.40;55.10;;;;;;4992534;28;87331;-88
2023/06/09 00:39:03;;;;;;;7.43;6.75;;;24.40;55.30;;;;;;4967318;28;87940;-91
2023/06/09 00:41:28;;;;;;;7.72;6.10;;;24.40;55.20;;;;;;4997969;28;87675;-90
2023/06/09 00:43:55;;;;;;;6.05;5.53;;;24.40;55.30;;;;;;4995393;28;88117;-88
2023/06/09 00:46:22;;;;;;;6.35;5.75;;;24.40;55.30;;;;;;4995510;28;89165;-90
2023/06/09 00:48:50;;;;;;;6.65;6.05;;;24.40;56.00;;;;;;4995037;28;87545;-90
2023/06/09 00:51:16;;;;;;;6.95;6.25;;;24.40;55.10;;;;;;4998461;28;86949;-92
2023/06/09 00:53:43;;;;;;;6.78;6.18;;;24.40;55.20;;;;;;4995568;28;87148;-93
2023/06/09 00:56:12;;;;;;;6.60;6.00;;;24.40;55.20;;;;;;4999082;28;86723;-89
2023/06/09 00:58:39;;;;;;;6.95;6.25;;;24.40;55.10;;;;;;4993268;28;87195;-91
2023/06/09 01:01:05;;;;;;;7.32;6.63;;;24.30;55.30;;;;;;4995876;28;86533;-85
2023/06/09 01:03:32;;;;;;;6.47;5.88;;;24.30;55.20;;;;;;4995705;28;87803;-92
2023/06/09 01:06:09;;;;;;;6.38;5.88;;;24.30;55.40;;;;;;4996396;28;88488;-92
2023/06/09 01:08:43;;;;;;;6.25;5.65;;;24.40;55.10;;;;;;4992998;28;88599;-86
2023/06/09 01:11:25;;;;;;;7.53;6.80;;;24.40;55.20;;;;;;4994593;28;88138;-87
2023/06/09 01:14:13;;;;;;;7.25;6.50;;;24.30;55.20;;;;;;4994183;28;88063;-88
2023/06/09 01:17:03;;;;;;;6.93;6.25;;;24.30;55.10;;;;;;4994996;28;87250;-94
2023/06/09 01:19:39;;;;;;;6.10;5.50;;;24.30;55.30;;;;;;4993632;28;87682;-85
2023/06/09 01:22:17;;;;;;;6.00;5.40;;;24.30;55.10;;;;;;4997269;28;89365;-86
2023/06/09 01:25:10;;;;;;;6.30;5.70;;;24.30;55.10;;;;;;4995702;28;87995;-91
2023/06/09 01:27:39;;;;;;;7.03;6.35;;;24.30;55.00;;;;;;5002368;28;87420;-93
2023/06/09 01:30:09;;;;;;;7.18;6.45;;;24.30;55.10;;;;;;4998005;28;87155;-89
2023/06/09 01:32:36;;;;;;;5.65;5.15;;;24.30;55.10;;;;;;4998885;28;87459;-91
2023/06/09 01:35:03;;;;;;;6.65;5.80;;;24.30;55.00;;;;;;4998177;28;90186;-87
2023/06/09 01:37:29;;;;;;;6.78;5.78;;;24.30;55.20;;;;;;4989363;28;91668;-92
2023/06/09 01:39:55;;;;;;;6.82;5.60;;;24.30;55.30;;;;;;4998890;28;87780;-92
2023/06/09 01:42:20;;;;;;;6.15;5.55;;;24.30;55.20;;;;;;4988320;28;89373;-94
2023/06/09 01:44:46;;;;;;;6.53;5.85;;;24.30;55.30;;;;;;4999559;28;87577;-94
2023/06/09 01:47:12;;;;;;;6.50;5.90;;;24.30;55.10;;;;;;4999283;28;88312;-89
2023/06/09 01:49:59;;;;;;;5.78;5.28;;;24.30;55.10;;;;;;4998751;28;87945;-91
2023/06/09 01:52:44;;;;;;;5.63;5.13;;;24.30;55.10;;;;;;4993537;28;88587;-93
2023/06/09 01:55:16;;;;;;;6.45;5.85;;;24.30;55.10;;;;;;5000751;28;88297;-88
2023/06/09 01:57:47;;;;;;;6.35;5.75;;;24.30;55.00;;;;;;4998823;28;87279;-95
2023/06/09 02:00:14;;;;;;;5.85;5.30;;;24.30;55.10;;;;;;4998500;28;88863;-90
2023/06/09 02:02:41;;;;;;;6.05;5.45;;;24.20;55.00;;;;;;5001920;28;88161;-88
2023/06/09 02:05:08;;;;;;;6.25;5.68;;;24.30;55.10;;;;;;4998071;28;87310;-95
2023/06/09 02:07:34;;;;;;;5.97;5.47;;;24.30;55.10;;;;;;4997958;28;87835;-95
2023/06/09 02:10:02;;;;;;;5.93;5.43;;;24.30;55.00;;;;;;4991934;28;87612;-92
2023/06/09 02:12:34;;;;;;;6.90;6.22;;;24.30;55.00;;;;;;4995279;28;88298;-89
2023/06/09 02:15:00;;;;;;;5.80;5.30;;;24.30;55.10;;;;;;4987754;28;90862;-92
2023/06/09 02:17:27;;;;;;;6.05;5.50;;;24.20;55.00;;;;;;4990524;28;89100;-92
2023/06/09 02:19:53;;;;;;;6.32;5.72;;;24.30;55.10;;;;;;4994624;28;87606;-93
2023/06/09 02:22:19;;;;;;;6.43;5.90;;;24.30;55.10;;;;;;4997230;28;87506;-94
2023/06/09 02:24:45;;;;;;;6.47;5.93;;;24.30;55.10;;;;;;4996476;28;89532;-94
2023/06/09 02:27:10;;;;;;;6.07;5.57;;;24.30;55.10;;;;;;4997266;28;88980;-92
2023/06/09 02:29:36;;;;;;;6.63;5.95;;;24.20;55.00;;;;;;4996842;28;87243;-89
2023/06/09 02:32:02;;;;;;;6.60;6.00;;;24.20;55.00;;;;;;4988137;28;88541;-94
2023/06/09 02:34:29;;;;;;;6.40;5.72;;;24.20;54.90;;;;;;4996775;28;88037;-93
2023/06/09 02:36:57;;;;;;;6.03;5.53;;;24.20;54.90;;;;;;4996363;28;87669;-92
2023/06/09 02:39:23;;;;;;;5.90;5.30;;;24.20;54.90;;;;;;4989216;28;87767;-90
2023/06/09 02:41:49;;;;;;;5.55;5.05;;;24.20;55.00;;;;;;4997146;28;86362;-92
2023/06/09 02:44:15;;;;;;;6.20;5.70;;;24.20;55.00;;;;;;4996927;28;87824;-94
2023/06/09 02:46:43;;;;;;;6.00;5.50;;;24.20;54.90;;;;;;5000430;28;87672;-92
2023/06/09 02:49:09;;;;;;;5.90;5.40;;;24.20;55.10;;;;;;4996269;28;87942;-91
2023/06/09 02:51:36;;;;;;;6.25;5.75;;;24.20;55.30;;;;;;4997127;28;87171;-91
2023/06/09 02:54:02;;;;;;;6.50;5.90;;;24.20;55.20;;;;;;4988341;28;89420;-93
2023/06/09 02:56:28;;;;;;;5.55;5.05;;;24.20;55.20;;;;;;4994741;28;89330;-89
2023/06/09 02:58:53;;;;;;;5.63;5.13;;;24.20;55.10;;;;;;4988399;28;87052;-93
2023/06/09 03:01:22;;;;;;;6.50;5.90;;;24.20;55.10;;;;;;4998996;28;87042;-96
2023/06/09 03:03:48;;;;;;;5.78;5.18;;;24.20;55.10;;;;;;4996816;28;87552;-95
2023/06/09 03:06:15;;;;;;;5.55;5.07;;;24.20;54.90;;;;;;4996801;28;87380;-91
2023/06/09 03:08:41;;;;;;;5.90;5.40;;;24.20;55.00;;;;;;4994984;28;87098;-92
2023/06/09 03:11:07;;;;;;;5.05;4.55;;;24.20;55.00;;;;;;4997338;28;87426;-93
2023/06/09 03:13:32;;;;;;;5.90;5.30;;;24.20;54.80;;;;;;4994004;28;90053;-96
2023/06/09 03:15:58;;;;;;;5.40;4.90;;;24.20;54.90;;;;;;4995115;28;87885;-94
2023/06/09 03:18:26;;;;;;;6.00;5.40;;;24.20;54.80;;;;;;4997321;28;87612;-91
2023/06/09 03:20:52;;;;;;;5.60;5.13;;;24.20;54.80;;;;;;4986093;28;89256;-92
2023/06/09 03:23:20;;;;;;;6.00;5.50;;;24.20;54.80;;;;;;4995687;28;89709;-91
2023/06/09 03:25:46;;;;;;;5.45;4.97;;;24.20;54.70;;;;;;4994239;28;87769;-93
2023/06/09 03:28:12;;;;;;;6.00;5.50;;;24.20;54.90;;;;;;4996108;28;87056;-93
2023/06/09 03:30:38;;;;;;;5.45;4.95;;;24.20;54.70;;;;;;4994747;28;86817;-95
2023/06/09 03:33:04;;;;;;;6.10;5.50;;;24.20;54.70;;;;;;4996245;28;88083;-93
2023/06/09 03:35:29;;;;;;;5.50;5.03;;;24.20;54.80;;;;;;4994893;28;87677;-92
2023/06/09 03:37:55;;;;;;;5.35;4.85;;;24.20;54.80;;;;;;4988652;28;88605;-88
2023/06/09 03:40:21;;;;;;;5.60;5.10;;;24.10;54.90;;;;;;4994758;28;87336;-93
2023/06/09 03:42:46;;;;;;;5.70;5.13;;;24.10;54.80;;;;;;4994491;28;88459;-94
2023/06/09 03:45:12;;;;;;;5.32;4.82;;;24.10;54.90;;;;;;4993274;28;88136;-93
2023/06/09 03:47:40;;;;;;;5.57;5.10;;;24.10;54.90;;;;;;4993951;28;87556;-94
2023/06/09 03:50:06;;;;;;;5.53;5.10;;;24.10;54.70;;;;;;4994335;28;86881;-90
2023/06/09 03:52:32;;;;;;;5.35;4.85;;;24.10;54.90;;;;;;4995050;28;89623;-87
2023/06/09 03:54:58;;;;;;;5.75;5.25;;;24.10;54.80;;;;;;4996145;28;88026;-94
2023/06/09 03:57:23;;;;;;;5.40;4.95;;;24.10;54.90;;;;;;4998667;28;87154;-96
2023/06/09 03:59:50;;;;;;;6.15;5.22;;;24.10;54.90;;;;;;4988055;28;89051;-89
2023/06/09 04:02:16;;;;;;;5.22;4.82;;;24.10;54.80;;;;;;4994743;28;89159;-91
2023/06/09 04:04:41;;;;;;;5.65;5.15;;;24.10;54.70;;;;;;4992632;28;88580;-92
2023/06/09 04:07:07;;;;;;;5.15;4.68;;;24.10;54.80;;;;;;4996109;28;87818;-90
2023/06/09 04:09:34;;;;;;;5.65;5.15;;;24.10;54.80;;;;;;4993135;28;89497;-92
2023/06/09 04:12:00;;;;;;;5.57;5.03;;;24.10;54.70;;;;;;4995426;28;87880;-88
2023/06/09 04:14:26;;;;;;;5.32;4.82;;;24.10;54.90;;;;;;4987470;28;91269;-95
2023/06/09 04:16:51;;;;;;;6.22;5.65;;;24.10;54.60;;;;;;4997196;28;87338;-93
2023/06/09 04:19:17;;;;;;;5.40;4.90;;;24.10;54.70;;;;;;5012569;28;89268;-92
2023/06/09 04:21:43;;;;;;;5.63;5.13;;;24.10;54.70;;;;;;4994750;28;87776;-94
2023/06/09 04:24:10;;;;;;;5.53;5.03;;;24.10;54.80;;;;;;4992199;28;90499;-90
2023/06/09 04:26:37;;;;;;;5.40;5.00;;;24.10;54.60;;;;;;4985771;28;88305;-93
2023/06/09 04:29:03;;;;;;;6.55;5.95;;;24.10;54.70;;;;;;4983821;28;88924;-94
2023/06/09 04:31:33;;;;;;;5.70;5.20;;;24.20;54.40;;;;;;4993786;28;87981;-90
2023/06/09 04:34:09;;;;;;;5.60;5.10;;;24.20;54.70;;;;;;4994688;28;87243;-92
2023/06/09 04:36:35;;;;;;;5.32;4.82;;;24.20;54.70;;;;;;4994172;28;88707;-89
2023/06/09 04:39:00;;;;;;;5.47;5.07;;;24.20;54.60;;;;;;4993664;28;87325;-92
2023/06/09 04:41:26;;;;;;;5.65;5.15;;;24.20;54.50;;;;;;4992067;28;91412;-93
2023/06/09 04:43:53;;;;;;;5.60;5.10;;;24.20;54.30;;;;;;4983820;28;89596;-94
2023/06/09 04:46:25;;;;;;;5.47;5.07;;;24.30;54.40;;;;;;4994661;28;87705;-91
2023/06/09 04:48:51;;;;;;;5.43;4.93;;;24.30;54.30;;;;;;4985358;28;88287;-92
2023/06/09 04:51:19;;;;;;;5.55;5.05;;;24.30;54.40;;;;;;4992668;28;89237;-95
2023/06/09 04:53:46;;;;;;;5.57;5.07;;;24.30;54.20;;;;;;4983616;28;89858;-91
2023/06/09 04:56:16;;;;;;;5.07;4.63;;;24.30;54.30;;;;;;4993558;28;87079;-95
2023/06/09 04:58:42;;;;;;;4.93;4.53;;;24.30;54.10;;;;;;4995261;28;87293;-94
2023/06/09 05:01:07;;;;;;;5.07;4.57;;;24.40;54.00;;;;;;4986833;28;91617;-90
2023/06/09 05:03:33;;;;;;;5.38;4.93;;;24.30;54.10;;;;;;4997450;28;87808;-95
2023/06/09 05:05:59;;;;;;;5.15;4.75;;;24.40;54.20;;;;;;4997889;28;87452;-92
2023/06/09 05:08:25;;;;;;;5.22;4.82;;;24.40;54.00;;;;;;4996122;28;89757;-94
2023/06/09 05:10:52;;;;;;;5.75;5.25;;;24.40;54.10;;;;;;4996778;28;87823;-93
2023/06/09 05:13:18;;;;;;;5.03;4.63;;;24.40;54.10;;;;;;4988448;28;90191;-92
2023/06/09 05:15:45;;;;;;;4.93;4.53;;;24.40;54.00;;;;;;4994559;28;88374;-89
2023/06/09 05:18:10;;;;;;;4.82;4.43;;;24.50;53.80;;;;;;4997182;28;87028;-94
2023/06/09 05:20:36;;;;;;;5.25;4.85;;;24.50;53.80;;;;;;4986325;28;89633;-95
2023/06/09 05:23:02;;;;;;;6.00;5.50;;;24.50;53.90;;;;;;4995076;28;87796;-95
2023/06/09 05:25:28;;;;;;;5.45;4.95;;;24.60;53.80;;;;;;4993497;28;87447;-90
2023/06/09 05:27:53;;;;;;;5.53;5.03;;;24.60;53.90;;;;;;4986833;28;88694;-89
2023/06/09 05:30:19;;;;;;;4.65;4.25;;;24.60;53.80;;;;;;4984795;28;89181;-95
2023/06/09 05:32:45;;;;;;;4.90;4.50;;;24.60;53.80;;;;;;4988195;28;89939;-88
2023/06/09 05:35:11;;;;;;;5.80;5.30;;;24.60;53.60;;;;;;4985016;28;88154;-92
2023/06/09 05:37:50;;;;;;;5.75;5.25;;;24.70;53.80;;;;;;4984494;28;90247;-90
2023/06/09 05:40:16;;;;;;;4.90;4.50;;;24.70;53.70;;;;;;4993620;28;88076;-94
2023/06/09 05:42:41;;;;;;;5.38;4.90;;;24.70;53.90;;;;;;4992466;28;90653;-90
2023/06/09 05:45:07;;;;;;;5.20;4.38;;;24.70;53.80;;;;;;4993823;28;87594;-92
2023/06/09 05:47:33;;;;;;;4.88;4.47;;;24.80;53.70;;;;;;4984298;28;89154;-92
2023/06/09 05:49:59;;;;;;;4.70;4.30;;;24.80;53.70;;;;;;4986695;28;89592;-94
2023/06/09 05:52:25;;;;;;;5.25;4.85;;;24.80;53.70;;;;;;4995091;28;88639;-92
2023/06/09 05:54:51;;;;;;;5.22;4.78;;;24.90;53.60;;;;;;4984335;28;87915;-87
2023/06/09 05:57:19;;;;;;;4.95;4.55;;;24.90;53.40;;;;;;4986365;28;89715;-92
2023/06/09 05:59:45;;;;;;;5.35;4.85;;;24.90;53.50;;;;;;4993372;28;90604;-91
2023/06/09 06:02:13;;;;;;;4.95;4.55;;;24.90;53.40;;;;;;4994582;28;87755;-89
2023/06/09 06:04:39;;;;;;;5.07;4.57;;;25.00;53.40;;;;;;4989016;28;88452;-94
2023/06/09 06:07:05;;;;;;;4.80;4.30;;;25.10;53.40;;;;;;4993683;28;88532;-88
2023/06/09 06:09:30;;;;;;;4.82;4.43;;;25.00;53.30;;;;;;4995582;28;87868;-92
2023/06/09 06:11:56;;;;;;;5.85;4.75;;;25.10;53.20;;;;;;4994797;28;88031;-94
2023/06/09 06:14:22;;;;;;;5.20;4.70;;;25.10;53.10;;;;;;4989262;28;87538;-94
2023/06/09 06:16:47;;;;;;;4.78;4.38;;;25.20;53.20;;;;;;4994216;28;86967;-91
2023/06/09 06:19:13;;;;;;;5.28;4.82;;;25.20;53.00;;;;;;4993883;28;87434;-96
2023/06/09 06:21:42;;;;;;;4.18;3.88;;;25.30;53.00;;;;;;4994107;28;87172;-94
2023/06/09 06:24:11;;;;;;;4.30;3.90;;;25.30;53.00;;;;;;4988680;28;87217;-94
2023/06/09 06:26:37;;;;;;;4.63;4.22;;;25.30;52.90;;;;;;4993742;28;88586;-94
2023/06/09 06:29:02;;;;;;;5.03;4.57;;;25.40;52.90;;;;;;4993851;28;88410;-92
2023/06/09 06:31:29;;;;;;;4.72;4.28;;;25.40;52.80;;;;;;4995731;28;87705;-87
2023/06/09 06:33:55;;;;;;;4.68;4.28;;;25.50;52.80;;;;;;4991964;28;87196;-96
2023/06/09 06:36:21;;;;;;;4.88;4.47;;;25.50;52.80;;;;;;4999149;28;88082;-94
2023/06/09 06:38:47;;;;;;;4.63;4.25;;;25.50;52.70;;;;;;4997307;28;89783;-94
2023/06/09 06:41:13;;;;;;;4.82;4.43;;;25.60;52.80;;;;;;4995566;28;88897;-92
2023/06/09 06:43:41;;;;;;;5.68;4.57;;;25.40;52.90;;;;;;4987028;28;87857;-89
2023/06/09 06:46:07;;;;;;;7.22;4.30;;;25.40;52.60;;;;;;4994345;28;89228;-88
2023/06/09 06:48:33;;;;;;;5.63;4.47;;;25.30;52.20;;;;;;4992898;28;89287;-89
2023/06/09 06:50:59;;;;;;;5.88;5.38;;;25.20;52.40;;;;;;4993278;28;87974;-92
2023/06/09 06:53:25;;;;;;;8.48;5.53;;;25.20;52.50;;;;;;4992527;28;88913;-93
2023/06/09 06:55:51;;;;;;;7.25;5.93;;;25.10;52.60;;;;;;4992694;28;87385;-95
2023/06/09 06:58:23;;;;;;;6.90;4.90;;;25.10;52.70;;;;;;4994956;28;87672;-88
2023/06/09 07:00:48;;;;;;;12.02;5.75;;;25.00;52.50;;;;;;4996335;28;90550;-94
2023/06/09 07:03:16;;;;;;;9.05;5.97;;;25.00;52.60;;;;;;4995145;28;88090;-94
2023/06/09 07:05:41;;;;;;;7.63;6.28;;;24.90;52.50;;;;;;4982823;28;87671;-89
2023/06/09 07:08:07;;;;;;;9.63;5.60;;;24.90;52.70;;;;;;4995053;28;87531;-88
2023/06/09 07:10:34;;;;;;;7.47;6.25;;;24.90;52.60;;;;;;4994259;28;86659;-86
2023/06/09 07:12:59;;;;;;;6.30;5.05;;;24.90;52.80;;;;;;4991387;28;88304;-90
2023/06/09 07:15:32;;;;;;;9.57;5.20;;;24.90;52.40;;;;;;4993506;28;87595;-88
2023/06/09 07:17:59;;;;;;;6.32;5.32;;;24.80;52.40;;;;;;4980403;28;92255;-87
2023/06/09 07:20:25;;;;;;;5.72;5.10;;;24.80;52.60;;;;;;4996913;28;87383;-91
2023/06/09 07:22:52;;;;;;;7.75;6.10;;;24.90;52.60;;;;;;4987654;28;87709;-95
2023/06/09 07:25:17;;;;;;;11.68;5.20;;;24.90;52.60;;;;;;4997917;28;87309;-94
2023/06/09 07:27:43;;;;;;;7.45;5.93;;;24.80;52.60;;;;;;4997493;28;87960;-94
2023/06/09 07:30:15;;;;;;;7.70;5.78;;;24.80;52.90;;;;;;5000301;28;88246;-91
2023/06/09 07:32:45;;;;;;;7.45;5.35;;;24.80;52.70;;;;;;4994119;28;87565;-91
2023/06/09 07:35:12;;;;;;;11.23;5.28;;;24.80;52.50;;;;;;4992522;28;87684;-89
2023/06/09 07:37:43;;;;;;;6.85;5.07;;;24.80;52.70;;;;;;4971994;28;88127;-90
2023/06/09 07:40:09;;;;;;;13.77;5.93;;;24.90;52.50;;;;;;4991855;28;87281;-86
2023/06/09 07:42:35;;;;;;;12.65;6.30;;;24.90;52.40;;;;;;4986855;28;88541;-84
2023/06/09 07:45:01;;;;;;;15.73;6.32;;;24.90;52.20;;;;;;4987922;28;87631;-90
2023/06/09 07:47:27;;;;;;;28.13;8.85;;;24.90;52.20;;;;;;4985675;28;90680;-91
2023/06/09 07:49:52;;;;;;;28.90;8.45;;;24.90;52.10;;;;;;4986751;28;88406;-91
2023/06/09 07:52:18;;;;;;;36.63;11.30;;;24.90;52.20;;;;;;4985966;28;87198;-89
2023/06/09 07:54:43;;;;;;;40.00;10.48;;;24.80;51.90;;;;;;4985907;28;87888;-92
2023/06/09 07:57:09;;;;;;;36.75;11.98;;;24.80;52.10;;;;;;4983620;28;90610;-88
2023/06/09 07:59:35;;;;;;;31.67;10.15;;;24.80;52.10;;;;;;4990814;28;88546;-90
2023/06/09 08:02:01;;;;;;;36.67;10.73;;;24.90;51.50;;;;;;4989349;28;87279;-92
2023/06/09 08:04:28;;;;;;;32.25;10.98;;;24.90;51.50;;;;;;4989768;28;87928;-89
2023/06/09 08:06:54;;;;;;;25.63;9.13;;;24.90;51.70;;;;;;4985475;28;90306;-93
2023/06/09 08:09:20;;;;;;;21.38;8.45;;;24.90;51.30;;;;;;4989746;28;89333;-86
2023/06/09 08:11:48;;;;;;;20.67;8.20;;;25.00;51.30;;;;;;4990745;28;88150;-95
2023/06/09 08:14:13;;;;;;;18.55;7.68;;;24.90;51.20;;;;;;4989381;28;87178;-91
2023/06/09 08:16:39;;;;;;;12.43;6.22;;;25.00;51.30;;;;;;4988381;28;87906;-91
2023/06/09 08:19:05;;;;;;;20.33;6.97;;;24.90;51.30;;;;;;4987851;28;88206;-91
2023/06/09 08:21:30;;;;;;;17.67;7.63;;;24.90;51.60;;;;;;4980054;28;87712;-93
2023/06/09 08:23:56;;;;;;;15.13;7.20;;;24.90;51.40;;;;;;4988924;28;86164;-88
2023/06/09 08:26:21;;;;;;;17.60;7.10;;;24.90;51.40;;;;;;4980746;28;90832;-91
2023/06/09 08:28:48;;;;;;;16.73;6.90;;;24.80;51.50;;;;;;4990099;28;89583;-91
2023/06/09 08:31:14;;;;;;;13.20;6.28;;;24.80;51.60;;;;;;4990974;28;88694;-92
2023/06/09 08:33:39;;;;;;;15.85;6.32;;;24.80;51.70;;;;;;4990373;28;88491;-93
2023/06/09 08:36:05;;;;;;;16.92;6.78;;;24.80;51.90;;;;;;4991166;28;87068;-92
2023/06/09 08:38:32;;;;;;;15.95;6.50;;;24.80;51.80;;;;;;4991303;28;87454;-92
2023/06/09 08:41:05;;;;;;;8.90;5.68;;;24.80;51.80;;;;;;4981879;28;87760;-92
2023/06/09 08:43:31;;;;;;;13.57;6.10;;;24.90;51.90;;;;;;4989771;28;87284;-92
2023/06/09 08:45:59;;;;;;;10.13;5.80;;;24.90;52.00;;;;;;4983650;28;88712;-90
2023/06/09 08:48:26;;;;;;;13.70;5.82;;;24.80;52.30;;;;;;4984497;28;90818;-91
2023/06/09 08:50:54;;;;;;;12.55;6.07;;;24.80;51.90;;;;;;4990756;28;87643;-91
2023/06/09 08:53:20;;;;;;;7.35;5.22;;;24.90;52.00;;;;;;4990828;28;87671;-85
2023/06/09 08:55:47;;;;;;;9.45;5.22;;;24.90;51.90;;;;;;4990759;28;89593;-91
2023/06/09 08:58:13;;;;;;;7.93;4.97;;;24.90;52.00;;;;;;5005606;28;90507;-91
2023/06/09 09:00:40;;;;;;;9.00;5.28;;;24.80;51.90;;;;;;4991371;28;87956;-92
2023/06/09 09:03:06;;;;;;;8.90;5.30;;;24.90;52.00;;;;;;4991822;28;87448;-94
2023/06/09 09:05:32;;;;;;;8.40;4.88;;;24.80;51.90;;;;;;4989121;28;88346;-89
2023/06/09 09:07:58;;;;;;;10.20;5.28;;;24.80;51.90;;;;;;4982822;28;89591;-91
2023/06/09 09:10:23;;;;;;;7.53;4.85;;;24.90;52.00;;;;;;4989269;28;87421;-89
2023/06/09 09:12:51;;;;;;;8.90;4.60;;;24.90;51.90;;;;;;4988515;28;86842;-87
2023/06/09 09:15:17;;;;;;;6.50;4.82;;;24.80;51.80;;;;;;4988138;28;87894;-89
2023/06/09 09:17:46;;;;;;;9.43;5.05;;;24.80;51.70;;;;;;4987268;28;87830;-94
2023/06/09 09:20:14;;;;;;;6.40;4.75;;;24.80;51.80;;;;;;4985264;28;88376;-91
2023/06/09 09:22:48;;;;;;;8.80;4.32;;;24.80;52.00;;;;;;4987146;28;87874;-86
2023/06/09 09:25:25;;;;;;;7.18;4.55;;;24.80;51.90;;;;;;4984783;28;87678;-89
2023/06/09 09:28:05;;;;;;;6.75;4.68;;;24.80;51.90;;;;;;4980443;28;90235;-91
2023/06/09 09:30:44;;;;;;;5.97;4.13;;;24.80;52.00;;;;;;4978930;28;88133;-93
2023/06/09 09:33:11;;;;;;;4.97;4.18;;;24.80;52.00;;;;;;5004216;28;90435;-93
2023/06/09 09:35:44;;;;;;;6.55;4.53;;;24.80;51.90;;;;;;4979069;28;90509;-85
2023/06/09 09:38:16;;;;;;;6.53;4.47;;;24.80;51.70;;;;;;4988594;28;87534;-93
2023/06/09 09:40:44;;;;;;;9.45;4.80;;;24.80;51.40;;;;;;4985659;28;87541;-94
2023/06/09 09:43:10;;;;;;;5.50;4.20;;;24.80;51.50;;;;;;4991234;28;87507;-92
2023/06/09 09:45:39;;;;;;;7.28;4.32;;;24.90;51.10;;;;;;4990208;28;88771;-91
2023/06/09 09:48:09;;;;;;;10.18;3.80;;;24.90;50.90;;;;;;4992894;28;88028;-86
2023/06/09 09:50:37;;;;;;;6.80;4.07;;;24.90;50.50;;;;;;4993039;28;87490;-90
2023/06/09 09:56:03;;;;;;;4.90;3.83;;;24.90;50.70;;;;;;5223821;22;87751;-86
2023/06/09 09:58:36;;;;;;;6.00;3.58;;;24.90;51.10;;;;;;4966098;28;89405;-86
2023/06/09 10:01:07;;;;;;;6.30;3.95;;;24.90;50.60;;;;;;4971294;28;87419;-90
2023/06/09 10:03:34;;;;;;;8.30;3.97;;;24.90;51.10;;;;;;4964223;28;89055;-86
2023/06/09 10:06:02;;;;;;;5.63;3.88;;;24.90;51.40;;;;;;4965417;28;87624;-87
2023/06/09 10:08:30;;;;;;;7.05;3.65;;;24.90;51.30;;;;;;4965407;28;90535;-88
2023/06/09 10:10:59;;;;;;;7.07;3.55;;;24.90;51.50;;;;;;4965335;28;88954;-87
2023/06/09 10:13:26;;;;;;;10.02;4.32;;;24.90;51.50;;;;;;4973316;28;88489;-86
2023/06/09 10:15:55;;;;;;;4.55;3.60;;;25.00;51.50;;;;;;4968085;28;88225;-88
2023/06/09 10:18:23;;;;;;;6.82;4.03;;;24.90;51.30;;;;;;4964869;28;88016;-87
2023/06/09 10:20:50;;;;;;;4.97;4.07;;;24.90;51.60;;;;;;4967761;28;87950;-86
2023/06/09 10:23:16;;;;;;;5.13;3.78;;;24.90;51.70;;;;;;4964871;28;90209;-88
2023/06/09 10:25:42;;;;;;;6.03;4.30;;;24.90;51.80;;;;;;4964740;28;88307;-89
2023/06/09 10:28:10;;;;;;;6.13;3.97;;;24.90;51.60;;;;;;4967729;28;87281;-86
2023/06/09 10:30:36;;;;;;;6.43;3.97;;;24.90;51.60;;;;;;4964223;28;87858;-86
2023/06/09 10:33:08;;;;;;;5.65;4.03;;;24.90;51.30;;;;;;4963902;28;88336;-87
2023/06/09 10:35:37;;;;;;;5.97;4.00;;;25.00;51.40;;;;;;4963929;28;89354;-86
2023/06/09 10:38:22;;;;;;;5.90;3.90;;;25.00;51.20;;;;;;4965315;28;89678;-85
2023/06/09 10:40:52;;;;;;;7.80;4.38;;;25.10;51.00;;;;;;4966346;28;87661;-89
2023/06/09 10:43:44;;;;;;;5.20;4.30;;;25.10;50.80;;;;;;4965456;28;87837;-86
2023/06/09 10:46:12;;;;;;;6.45;3.92;;;25.10;50.40;;;;;;4964208;28;88116;-86
2023/06/09 10:48:50;;;;;;;5.82;3.97;;;25.00;49.90;;;;;;4964288;28;87374;-86
2023/06/09 10:51:28;;;;;;;5.03;4.00;;;25.10;49.40;;;;;;4965873;28;88405;-86
2023/06/09 10:54:15;;;;;;;5.63;4.07;;;25.10;49.20;;;;;;4964681;28;87559;-86
2023/06/09 10:56:55;;;;;;;6.80;4.43;;;25.00;49.20;;;;;;4962791;28;88165;-86
2023/06/09 10:59:24;;;;;;;6.93;4.10;;;25.00;49.30;;;;;;4955410;28;88114;-88
2023/06/09 11:02:05;;;;;;;4.78;4.22;;;25.10;49.50;;;;;;4967097;28;88783;-87
2023/06/09 11:04:46;;;;;;;4.90;3.90;;;25.00;49.50;;;;;;4966975;28;88464;-84
2023/06/09 11:07:22;;;;;;;4.38;3.28;;;25.00;49.80;;;;;;4965551;28;88823;-88
2023/06/09 11:09:48;;;;;;;5.93;3.67;;;25.00;50.40;;;;;;4965792;28;88307;-84
2023/06/09 11:12:36;;;;;;;6.57;3.70;;;24.90;50.40;;;;;;4966361;28;87970;-86
2023/06/09 11:15:02;;;;;;;6.45;3.53;;;25.00;50.60;;;;;;4965358;28;86986;-86
2023/06/09 11:17:36;;;;;;;5.60;3.78;;;24.90;50.40;;;;;;4966732;28;89833;-83
2023/06/09 11:20:08;;;;;;;7.72;3.50;;;25.00;50.60;;;;;;4965797;28;87749;-87
2023/06/09 11:22:43;;;;;;;3.88;3.38;;;25.00;50.70;;;;;;4966038;28;88007;-83
2023/06/09 11:25:30;;;;;;;15.75;4.13;;;25.00;50.60;;;;;;4963448;28;87694;-88
2023/06/09 11:27:55;;;;;;;4.25;3.85;;;25.00;50.70;;;;;;4966543;28;89136;-84
2023/06/09 11:30:23;;;;;;;6.78;3.53;;;25.10;50.90;;;;;;4967162;28;89233;-84
2023/06/09 11:32:56;;;;;;;4.22;3.78;;;25.00;50.60;;;;;;4967503;28;88828;-84
2023/06/09 11:35:28;;;;;;;4.63;3.67;;;25.00;50.70;;;;;;4965361;28;88115;-86
2023/06/09 11:37:58;;;;;;;8.60;3.65;;;25.00;50.90;;;;;;4963948;28;87921;-85
2023/06/09 11:40:25;;;;;;;5.05;3.88;;;25.10;50.90;;;;;;4963052;28;88235;-87
2023/06/09 11:42:51;;;;;;;8.55;3.90;;;25.10;51.00;;;;;;4964205;28;87291;-86
2023/06/09 11:45:17;;;;;;;3.90;3.55;;;25.00;51.00;;;;;;4964142;28;87088;-87
2023/06/09 11:47:45;;;;;;;3.90;3.60;;;25.10;51.00;;;;;;4968682;28;87519;-87
2023/06/09 11:50:15;;;;;;;5.00;3.92;;;25.20;50.40;;;;;;4962705;28;87465;-86
2023/06/09 11:52:45;;;;;;;8.70;3.80;;;25.20;50.50;;;;;;4962722;28;89073;-85
2023/06/09 11:55:15;;;;;;;7.18;3.88;;;25.20;50.30;;;;;;4962792;28;87784;-84
2023/06/09 11:57:41;;;;;;;7.13;3.88;;;25.10;50.10;;;;;;4962893;28;88320;-85
2023/06/09 12:00:15;;;;;;;5.55;3.97;;;25.10;50.30;;;;;;4967190;28;89297;-85
2023/06/09 12:02:47;;;;;;;6.63;3.95;;;25.10;50.40;;;;;;4963816;28;87150;-83
2023/06/09 12:05:14;;;;;;;6.82;4.25;;;25.00;50.50;;;;;;4964963;28;87425;-88
2023/06/09 12:07:47;;;;;;;5.22;4.05;;;25.00;50.40;;;;;;4963602;28;87878;-86
2023/06/09 12:10:14;;;;;;;11.13;4.68;;;25.10;50.60;;;;;;4964535;28;87963;-88
2023/06/09 12:12:44;;;;;;;13.20;5.05;;;25.10;50.60;;;;;;4965061;28;87125;-88
2023/06/09 12:15:11;;;;;;;9.82;4.53;;;25.00;50.40;;;;;;4967430;28;87633;-85
2023/06/09 12:17:36;;;;;;;8.82;4.60;;;25.00;50.60;;;;;;4965135;28;89848;-86
2023/06/09 12:20:20;;;;;;;8.20;4.47;;;25.00;50.60;;;;;;4966633;28;88223;-85
2023/06/09 12:22:48;;;;;;;9.20;4.45;;;25.00;50.60;;;;;;4964428;28;87494;-84
2023/06/09 12:25:38;;;;;;;5.28;4.25;;;25.00;50.70;;;;;;4963346;28;87862;-87
2023/06/09 12:28:23;;;;;;;6.35;3.80;;;25.00;50.70;;;;;;4956096;28;88735;-87
2023/06/09 12:30:53;;;;;;;7.78;5.00;;;25.00;50.60;;;;;;4965582;28;88429;-84
2023/06/09 12:33:25;;;;;;;14.73;5.15;;;25.00;50.90;;;;;;4966783;28;87290;-85
2023/06/09 12:35:55;;;;;;;9.25;4.70;;;24.90;50.90;;;;;;4963356;28;87336;-86
2023/06/09 12:38:26;;;;;;;8.07;4.57;;;25.00;51.20;;;;;;4965466;28;87719;-87
2023/06/09 12:40:56;;;;;;;10.88;4.80;;;25.00;51.00;;;;;;4966638;28;87810;-85
2023/06/09 12:43:24;;;;;;;9.50;4.85;;;24.90;51.00;;;;;;4963476;28;88309;-85
2023/06/09 12:45:54;;;;;;;9.48;4.95;;;25.00;50.90;;;;;;4963024;28;87363;-87
2023/06/09 12:48:20;;;;;;;7.72;4.68;;;25.00;51.00;;;;;;4963952;28;88355;-85
2023/06/09 12:50:45;;;;;;;6.97;4.20;;;25.00;51.10;;;;;;4962120;28;89035;-85
2023/06/09 12:53:12;;;;;;;6.13;4.00;;;25.00;50.70;;;;;;4963715;28;87912;-86
2023/06/09 12:55:39;;;;;;;7.57;4.15;;;25.00;50.80;;;;;;4965505;28;87562;-86